sensor_id;sensor_type;location;lat;lon;timestamp;P1;durP1;ratioP1;P2;durP2;ratioP2
56233;SDS011;42141;53.240;6.580;2022-10-28T00:01:24;15.10;;;7.68;;
56233;SDS011;42141;53.240;6.580;2022-10-28T00:03:51;14.15;;;6.95;;
56233;SDS011;42141;53.240;6.580;2022-10-28T00:06:20;18.88;;;6.80;;
56233;SDS011;42141;53.240;6.580;2022-10-28T00:08:50;15.67;;;7.63;;
56233;SDS011;42141;53.240;6.580;2022-10-28T00:11:21;31.10;;;7.72;;
56233;SDS011;42141;53.240;6.580;2022-10-28T00:13:57;24.45;;;8.43;;
56233;SDS011;42141;53.240;6.580;2022-10-28T00:16:26;16.08;;;7.70;;
56233;SDS011;42141;53.240;6.580;2022-10-28T00:18:59;20.25;;;7.97;;
56233;SDS011;42141;53.240;6.580;2022-10-28T00:21:28;14.60;;;7.90;;
56233;SDS011;42141;53.240;6.580;2022-10-28T00:23:56;16.20;;;7.47;;
56233;SDS011;42141;53.240;6.580;2022-10-28T00:26:23;19.35;;;8.38;;
56233;SDS011;42141;53.240;6.580;2022-10-28T00:28:57;15.87;;;6.87;;
56233;SDS011;42141;53.240;6.580;2022-10-28T00:31:29;16.30;;;6.97;;
56233;SDS011;42141;53.240;6.580;2022-10-28T00:33:57;19.27;;;7.80;;
56233;SDS011;42141;53.240;6.580;2022-10-28T00:36:25;21.02;;;7.18;;
56233;SDS011;42141;53.240;6.580;2022-10-28T00:38:53;10.73;;;7.10;;
56233;SDS011;42141;53.240;6.580;2022-10-28T00:41:27;15.05;;;7.10;;
56233;SDS011;42141;53.240;6.580;2022-10-28T00:43:59;16.90;;;7.30;;
56233;SDS011;42141;53.240;6.580;2022-10-28T00:46:39;13.20;;;6.68;;
56233;SDS011;42141;53.240;6.580;2022-10-28T00:51:34;17.80;;;7.20;;
56233;SDS011;42141;53.240;6.580;2022-10-28T00:54:00;18.75;;;7.47;;
56233;SDS011;42141;53.240;6.580;2022-10-28T00:56:29;15.38;;;7.63;;
56233;SDS011;42141;53.240;6.580;2022-10-28T00:58:58;16.15;;;7.15;;
56233;SDS011;42141;53.240;6.580;2022-10-28T01:01:26;11.75;;;7.40;;
56233;SDS011;42141;53.240;6.580;2022-10-28T01:03:52;20.95;;;9.27;;
56233;SDS011;42141;53.240;6.580;2022-10-28T01:06:20;19.90;;;7.75;;
56233;SDS011;42141;53.240;6.580;2022-10-28T01:08:47;15.80;;;7.10;;
56233;SDS011;42141;53.240;6.580;2022-10-28T01:14:22;17.85;;;8.27;;
56233;SDS011;42141;53.240;6.580;2022-10-28T01:22:18;13.13;;;7.32;;
56233;SDS011;42141;53.240;6.580;2022-10-28T01:27:21;17.65;;;7.97;;
56233;SDS011;42141;53.240;6.580;2022-10-28T01:30:05;21.45;;;8.90;;
56233;SDS011;42141;53.240;6.580;2022-10-28T01:35:15;27.63;;;8.40;;
56233;SDS011;42141;53.240;6.580;2022-10-28T01:41:07;19.60;;;8.27;;
56233;SDS011;42141;53.240;6.580;2022-10-28T01:46:28;21.35;;;8.27;;
56233;SDS011;42141;53.240;6.580;2022-10-28T01:51:47;15.18;;;8.93;;
56233;SDS011;42141;53.240;6.580;2022-10-28T01:54:19;19.90;;;7.30;;
56233;SDS011;42141;53.240;6.580;2022-10-28T01:56:48;17.92;;;8.63;;
56233;SDS011;42141;53.240;6.580;2022-10-28T01:59:19;14.68;;;7.35;;
56233;SDS011;42141;53.240;6.580;2022-10-28T02:01:50;13.48;;;7.18;;
56233;SDS011;42141;53.240;6.580;2022-10-28T02:04:16;18.38;;;7.35;;
56233;SDS011;42141;53.240;6.580;2022-10-28T02:06:42;15.63;;;7.90;;
56233;SDS011;42141;53.240;6.580;2022-10-28T02:14:50;17.90;;;7.60;;
56233;SDS011;42141;53.240;6.580;2022-10-28T02:17:43;17.73;;;7.85;;
56233;SDS011;42141;53.240;6.580;2022-10-28T02:26:13;16.48;;;7.72;;
56233;SDS011;42141;53.240;6.580;2022-10-28T02:28:49;16.00;;;8.00;;
56233;SDS011;42141;53.240;6.580;2022-10-28T02:31:23;18.67;;;9.15;;
56233;SDS011;42141;53.240;6.580;2022-10-28T02:33:57;17.83;;;8.18;;
56233;SDS011;42141;53.240;6.580;2022-10-28T02:36:27;16.50;;;8.07;;
56233;SDS011;42141;53.240;6.580;2022-10-28T02:38:57;18.92;;;8.05;;
56233;SDS011;42141;53.240;6.580;2022-10-28T02:41:36;17.15;;;9.20;;
56233;SDS011;42141;53.240;6.580;2022-10-28T02:44:14;16.13;;;8.98;;
56233;SDS011;42141;53.240;6.580;2022-10-28T02:46:53;19.98;;;10.45;;
56233;SDS011;42141;53.240;6.580;2022-10-28T02:49:22;26.98;;;11.40;;
56233;SDS011;42141;53.240;6.580;2022-10-28T02:51:51;23.63;;;11.82;;
56233;SDS011;42141;53.240;6.580;2022-10-28T02:54:25;21.80;;;11.13;;
56233;SDS011;42141;53.240;6.580;2022-10-28T02:57:00;21.00;;;10.95;;
56233;SDS011;42141;53.240;6.580;2022-10-28T02:59:36;16.75;;;10.45;;
56233;SDS011;42141;53.240;6.580;2022-10-28T03:02:03;21.08;;;12.02;;
56233;SDS011;42141;53.240;6.580;2022-10-28T03:04:29;17.85;;;10.02;;
56233;SDS011;42141;53.240;6.580;2022-10-28T03:06:55;18.35;;;10.02;;
56233;SDS011;42141;53.240;6.580;2022-10-28T03:09:21;22.33;;;9.75;;
56233;SDS011;42141;53.240;6.580;2022-10-28T03:11:46;23.98;;;9.75;;
56233;SDS011;42141;53.240;6.580;2022-10-28T03:14:18;19.83;;;9.82;;
56233;SDS011;42141;53.240;6.580;2022-10-28T03:16:43;20.17;;;9.98;;
56233;SDS011;42141;53.240;6.580;2022-10-28T03:19:09;17.58;;;11.73;;
56233;SDS011;42141;53.240;6.580;2022-10-28T03:21:34;22.60;;;10.50;;
56233;SDS011;42141;53.240;6.580;2022-10-28T03:24:00;16.60;;;10.73;;
56233;SDS011;42141;53.240;6.580;2022-10-28T03:26:26;17.23;;;9.57;;
56233;SDS011;42141;53.240;6.580;2022-10-28T03:28:51;14.25;;;9.43;;
56233;SDS011;42141;53.240;6.580;2022-10-28T03:31:17;17.27;;;10.40;;
56233;SDS011;42141;53.240;6.580;2022-10-28T03:33:43;20.13;;;9.77;;
56233;SDS011;42141;53.240;6.580;2022-10-28T03:36:08;23.02;;;10.32;;
56233;SDS011;42141;53.240;6.580;2022-10-28T03:38:34;24.88;;;11.23;;
56233;SDS011;42141;53.240;6.580;2022-10-28T03:41:00;20.17;;;10.98;;
56233;SDS011;42141;53.240;6.580;2022-10-28T03:43:25;23.30;;;11.25;;
56233;SDS011;42141;53.240;6.580;2022-10-28T03:45:51;19.30;;;11.13;;
56233;SDS011;42141;53.240;6.580;2022-10-28T03:48:16;23.70;;;11.98;;
56233;SDS011;42141;53.240;6.580;2022-10-28T03:50:42;20.13;;;12.02;;
56233;SDS011;42141;53.240;6.580;2022-10-28T03:53:08;24.85;;;10.95;;
56233;SDS011;42141;53.240;6.580;2022-10-28T03:55:33;16.80;;;11.02;;
56233;SDS011;42141;53.240;6.580;2022-10-28T03:57:59;18.00;;;10.73;;
56233;SDS011;42141;53.240;6.580;2022-10-28T04:00:26;20.70;;;11.52;;
56233;SDS011;42141;53.240;6.580;2022-10-28T04:02:52;21.60;;;11.32;;
56233;SDS011;42141;53.240;6.580;2022-10-28T04:05:18;22.27;;;12.02;;
56233;SDS011;42141;53.240;6.580;2022-10-28T04:07:45;22.65;;;11.07;;
56233;SDS011;42141;53.240;6.580;2022-10-28T04:10:11;20.92;;;12.82;;
56233;SDS011;42141;53.240;6.580;2022-10-28T04:12:37;26.58;;;13.90;;
56233;SDS011;42141;53.240;6.580;2022-10-28T04:15:03;24.23;;;13.40;;
56233;SDS011;42141;53.240;6.580;2022-10-28T04:17:29;30.73;;;14.05;;
56233;SDS011;42141;53.240;6.580;2022-10-28T04:19:55;32.20;;;14.68;;
56233;SDS011;42141;53.240;6.580;2022-10-28T04:22:21;21.08;;;13.43;;
56233;SDS011;42141;53.240;6.580;2022-10-28T04:24:46;22.35;;;13.30;;
56233;SDS011;42141;53.240;6.580;2022-10-28T04:27:12;22.23;;;12.15;;
56233;SDS011;42141;53.240;6.580;2022-10-28T04:29:38;25.38;;;12.90;;
56233;SDS011;42141;53.240;6.580;2022-10-28T04:32:03;30.63;;;13.43;;
56233;SDS011;42141;53.240;6.580;2022-10-28T04:34:29;20.58;;;12.23;;
56233;SDS011;42141;53.240;6.580;2022-10-28T04:36:54;23.48;;;12.70;;
56233;SDS011;42141;53.240;6.580;2022-10-28T04:39:20;25.15;;;13.20;;
56233;SDS011;42141;53.240;6.580;2022-10-28T04:41:46;24.95;;;12.88;;
56233;SDS011;42141;53.240;6.580;2022-10-28T04:44:12;28.85;;;13.25;;
56233;SDS011;42141;53.240;6.580;2022-10-28T04:46:38;25.42;;;13.90;;
56233;SDS011;42141;53.240;6.580;2022-10-28T04:49:03;27.95;;;14.57;;
56233;SDS011;42141;53.240;6.580;2022-10-28T04:51:29;26.15;;;12.75;;
56233;SDS011;42141;53.240;6.580;2022-10-28T04:53:55;25.20;;;14.88;;
56233;SDS011;42141;53.240;6.580;2022-10-28T04:56:24;23.10;;;12.57;;
56233;SDS011;42141;53.240;6.580;2022-10-28T04:58:49;23.55;;;13.60;;
56233;SDS011;42141;53.240;6.580;2022-10-28T05:01:15;21.92;;;13.55;;
56233;SDS011;42141;53.240;6.580;2022-10-28T05:03:41;27.83;;;13.77;;
56233;SDS011;42141;53.240;6.580;2022-10-28T05:06:06;28.67;;;14.68;;
56233;SDS011;42141;53.240;6.580;2022-10-28T05:08:32;31.67;;;14.65;;
56233;SDS011;42141;53.240;6.580;2022-10-28T05:10:58;31.70;;;15.52;;
56233;SDS011;42141;53.240;6.580;2022-10-28T05:13:23;27.70;;;14.35;;
56233;SDS011;42141;53.240;6.580;2022-10-28T05:15:49;26.15;;;14.45;;
56233;SDS011;42141;53.240;6.580;2022-10-28T05:18:15;30.15;;;14.57;;
56233;SDS011;42141;53.240;6.580;2022-10-28T05:20:41;33.15;;;14.15;;
56233;SDS011;42141;53.240;6.580;2022-10-28T05:23:08;26.73;;;14.18;;
56233;SDS011;42141;53.240;6.580;2022-10-28T05:25:33;31.05;;;14.10;;
56233;SDS011;42141;53.240;6.580;2022-10-28T05:27:59;32.15;;;14.93;;
56233;SDS011;42141;53.240;6.580;2022-10-28T05:30:26;26.08;;;14.52;;
56233;SDS011;42141;53.240;6.580;2022-10-28T05:33:02;25.13;;;14.73;;
56233;SDS011;42141;53.240;6.580;2022-10-28T05:35:28;23.77;;;13.68;;
56233;SDS011;42141;53.240;6.580;2022-10-28T05:37:54;23.40;;;14.07;;
56233;SDS011;42141;53.240;6.580;2022-10-28T05:40:20;27.52;;;14.15;;
56233;SDS011;42141;53.240;6.580;2022-10-28T05:42:46;19.75;;;13.48;;
56233;SDS011;42141;53.240;6.580;2022-10-28T05:45:12;28.45;;;13.75;;
56233;SDS011;42141;53.240;6.580;2022-10-28T05:47:45;20.23;;;13.15;;
56233;SDS011;42141;53.240;6.580;2022-10-28T05:50:12;27.48;;;13.38;;
56233;SDS011;42141;53.240;6.580;2022-10-28T05:52:39;24.33;;;14.20;;
56233;SDS011;42141;53.240;6.580;2022-10-28T05:55:13;26.23;;;13.52;;
56233;SDS011;42141;53.240;6.580;2022-10-28T05:57:39;26.83;;;14.57;;
56233;SDS011;42141;53.240;6.580;2022-10-28T06:00:05;28.70;;;14.77;;
56233;SDS011;42141;53.240;6.580;2022-10-28T06:02:31;34.33;;;15.10;;
56233;SDS011;42141;53.240;6.580;2022-10-28T06:04:57;22.70;;;14.00;;
56233;SDS011;42141;53.240;6.580;2022-10-28T06:07:23;29.92;;;14.60;;
56233;SDS011;42141;53.240;6.580;2022-10-28T06:09:49;24.17;;;14.75;;
56233;SDS011;42141;53.240;6.580;2022-10-28T06:12:15;30.92;;;14.55;;
56233;SDS011;42141;53.240;6.580;2022-10-28T06:14:41;27.85;;;15.30;;
56233;SDS011;42141;53.240;6.580;2022-10-28T06:17:06;25.67;;;15.05;;
56233;SDS011;42141;53.240;6.580;2022-10-28T06:19:32;32.95;;;15.68;;
56233;SDS011;42141;53.240;6.580;2022-10-28T06:21:58;23.92;;;14.10;;
56233;SDS011;42141;53.240;6.580;2022-10-28T06:24:23;30.60;;;15.70;;
56233;SDS011;42141;53.240;6.580;2022-10-28T06:26:49;27.23;;;13.82;;
56233;SDS011;42141;53.240;6.580;2022-10-28T06:29:15;30.15;;;17.38;;
56233;SDS011;42141;53.240;6.580;2022-10-28T06:31:41;26.77;;;15.63;;
56233;SDS011;42141;53.240;6.580;2022-10-28T06:34:07;29.73;;;15.13;;
56233;SDS011;42141;53.240;6.580;2022-10-28T06:36:36;35.33;;;14.85;;
56233;SDS011;42141;53.240;6.580;2022-10-28T06:39:03;35.38;;;13.68;;
56233;SDS011;42141;53.240;6.580;2022-10-28T06:41:29;28.40;;;14.60;;
56233;SDS011;42141;53.240;6.580;2022-10-28T06:43:55;24.83;;;14.90;;
56233;SDS011;42141;53.240;6.580;2022-10-28T06:46:21;31.02;;;16.00;;
56233;SDS011;42141;53.240;6.580;2022-10-28T06:48:46;22.58;;;14.18;;
56233;SDS011;42141;53.240;6.580;2022-10-28T06:51:12;25.67;;;15.30;;
56233;SDS011;42141;53.240;6.580;2022-10-28T06:53:38;28.13;;;14.82;;
56233;SDS011;42141;53.240;6.580;2022-10-28T06:56:04;29.23;;;15.60;;
56233;SDS011;42141;53.240;6.580;2022-10-28T06:58:30;26.52;;;15.13;;
56233;SDS011;42141;53.240;6.580;2022-10-28T07:00:55;31.92;;;15.30;;
56233;SDS011;42141;53.240;6.580;2022-10-28T07:03:21;26.60;;;15.27;;
56233;SDS011;42141;53.240;6.580;2022-10-28T07:05:47;27.35;;;15.18;;
56233;SDS011;42141;53.240;6.580;2022-10-28T07:08:15;28.48;;;13.82;;
56233;SDS011;42141;53.240;6.580;2022-10-28T07:10:41;28.75;;;14.95;;
56233;SDS011;42141;53.240;6.580;2022-10-28T07:13:06;34.53;;;13.82;;
56233;SDS011;42141;53.240;6.580;2022-10-28T07:15:32;26.75;;;15.07;;
56233;SDS011;42141;53.240;6.580;2022-10-28T07:17:58;29.52;;;14.07;;
56233;SDS011;42141;53.240;6.580;2022-10-28T07:20:25;36.80;;;14.80;;
56233;SDS011;42141;53.240;6.580;2022-10-28T07:22:55;22.45;;;12.80;;
56233;SDS011;42141;53.240;6.580;2022-10-28T07:25:23;28.95;;;13.05;;
56233;SDS011;42141;53.240;6.580;2022-10-28T07:27:50;29.48;;;12.48;;
56233;SDS011;42141;53.240;6.580;2022-10-28T07:30:16;30.30;;;12.65;;
56233;SDS011;42141;53.240;6.580;2022-10-28T07:32:41;28.05;;;11.88;;
56233;SDS011;42141;53.240;6.580;2022-10-28T07:35:07;23.13;;;12.90;;
56233;SDS011;42141;53.240;6.580;2022-10-28T07:37:33;20.95;;;12.20;;
56233;SDS011;42141;53.240;6.580;2022-10-28T07:39:59;21.75;;;10.43;;
56233;SDS011;42141;53.240;6.580;2022-10-28T07:42:24;28.70;;;10.73;;
56233;SDS011;42141;53.240;6.580;2022-10-28T07:44:50;30.55;;;11.02;;
56233;SDS011;42141;53.240;6.580;2022-10-28T07:47:16;25.83;;;10.55;;
56233;SDS011;42141;53.240;6.580;2022-10-28T07:49:43;21.95;;;10.25;;
56233;SDS011;42141;53.240;6.580;2022-10-28T07:52:09;21.30;;;9.30;;
56233;SDS011;42141;53.240;6.580;2022-10-28T07:54:34;19.45;;;10.00;;
56233;SDS011;42141;53.240;6.580;2022-10-28T07:57:00;25.48;;;9.38;;
56233;SDS011;42141;53.240;6.580;2022-10-28T07:59:26;17.55;;;8.60;;
56233;SDS011;42141;53.240;6.580;2022-10-28T08:01:51;18.50;;;8.23;;
56233;SDS011;42141;53.240;6.580;2022-10-28T08:04:17;22.05;;;8.13;;
56233;SDS011;42141;53.240;6.580;2022-10-28T08:06:43;25.08;;;8.63;;
56233;SDS011;42141;53.240;6.580;2022-10-28T08:09:09;18.77;;;7.50;;
56233;SDS011;42141;53.240;6.580;2022-10-28T08:11:34;17.27;;;7.75;;
56233;SDS011;42141;53.240;6.580;2022-10-28T08:14:01;15.52;;;6.90;;
56233;SDS011;42141;53.240;6.580;2022-10-28T08:16:26;19.52;;;7.45;;
56233;SDS011;42141;53.240;6.580;2022-10-28T08:18:53;22.85;;;6.85;;
56233;SDS011;42141;53.240;6.580;2022-10-28T08:21:20;17.67;;;7.07;;
56233;SDS011;42141;53.240;6.580;2022-10-28T08:23:47;15.13;;;6.72;;
56233;SDS011;42141;53.240;6.580;2022-10-28T08:26:13;14.27;;;6.20;;
56233;SDS011;42141;53.240;6.580;2022-10-28T08:28:39;19.90;;;7.13;;
56233;SDS011;42141;53.240;6.580;2022-10-28T08:31:06;20.73;;;6.82;;
56233;SDS011;42141;53.240;6.580;2022-10-28T08:33:36;18.25;;;6.88;;
56233;SDS011;42141;53.240;6.580;2022-10-28T08:36:04;19.85;;;7.03;;
56233;SDS011;42141;53.240;6.580;2022-10-28T08:38:31;17.50;;;7.15;;
56233;SDS011;42141;53.240;6.580;2022-10-28T08:41:01;17.55;;;6.80;;
56233;SDS011;42141;53.240;6.580;2022-10-28T08:49:54;16.40;;;5.68;;
56233;SDS011;42141;53.240;6.580;2022-10-28T08:54:50;16.60;;;5.82;;
56233;SDS011;42141;53.240;6.580;2022-10-28T08:57:20;15.45;;;6.47;;
56233;SDS011;42141;53.240;6.580;2022-10-28T09:00:17;14.07;;;5.68;;
56233;SDS011;42141;53.240;6.580;2022-10-28T09:06:04;14.25;;;6.20;;
56233;SDS011;42141;53.240;6.580;2022-10-28T09:08:35;18.45;;;5.95;;
56233;SDS011;42141;53.240;6.580;2022-10-28T09:19:39;18.83;;;5.40;;
56233;SDS011;42141;53.240;6.580;2022-10-28T09:27:27;14.55;;;6.10;;
56233;SDS011;42141;53.240;6.580;2022-10-28T09:30:31;20.05;;;5.35;;
56233;SDS011;42141;53.240;6.580;2022-10-28T09:33:16;15.27;;;4.28;;
56233;SDS011;42141;53.240;6.580;2022-10-28T09:36:02;24.10;;;6.30;;
56233;SDS011;42141;53.240;6.580;2022-10-28T09:38:31;17.98;;;5.50;;
56233;SDS011;42141;53.240;6.580;2022-10-28T09:41:10;14.18;;;6.03;;
56233;SDS011;42141;53.240;6.580;2022-10-28T09:43:47;15.13;;;5.13;;
56233;SDS011;42141;53.240;6.580;2022-10-28T09:46:21;13.15;;;5.60;;
56233;SDS011;42141;53.240;6.580;2022-10-28T09:48:54;20.40;;;4.97;;
56233;SDS011;42141;53.240;6.580;2022-10-28T09:53:50;15.00;;;5.22;;
56233;SDS011;42141;53.240;6.580;2022-10-28T09:58:47;14.73;;;5.03;;
56233;SDS011;42141;53.240;6.580;2022-10-28T10:01:14;14.30;;;5.22;;
56233;SDS011;42141;53.240;6.580;2022-10-28T10:03:42;16.95;;;5.00;;
56233;SDS011;42141;53.240;6.580;2022-10-28T10:06:19;12.13;;;5.30;;
56233;SDS011;42141;53.240;6.580;2022-10-28T10:08:52;10.80;;;4.10;;
56233;SDS011;42141;53.240;6.580;2022-10-28T10:11:39;12.73;;;4.88;;
56233;SDS011;42141;53.240;6.580;2022-10-28T10:14:09;16.38;;;4.85;;
56233;SDS011;42141;53.240;6.580;2022-10-28T10:19:11;18.35;;;4.78;;
56233;SDS011;42141;53.240;6.580;2022-10-28T10:21:44;12.60;;;5.00;;
56233;SDS011;42141;53.240;6.580;2022-10-28T10:24:25;14.07;;;4.75;;
56233;SDS011;42141;53.240;6.580;2022-10-28T10:26:58;17.23;;;5.38;;
56233;SDS011;42141;53.240;6.580;2022-10-28T10:29:46;15.07;;;5.78;;
56233;SDS011;42141;53.240;6.580;2022-10-28T10:32:16;16.70;;;5.00;;
56233;SDS011;42141;53.240;6.580;2022-10-28T10:34:51;12.77;;;4.38;;
56233;SDS011;42141;53.240;6.580;2022-10-28T10:37:19;17.77;;;5.20;;
56233;SDS011;42141;53.240;6.580;2022-10-28T10:40:00;13.25;;;4.68;;
56233;SDS011;42141;53.240;6.580;2022-10-28T10:42:29;14.73;;;5.00;;
56233;SDS011;42141;53.240;6.580;2022-10-28T10:44:59;15.25;;;5.32;;
56233;SDS011;42141;53.240;6.580;2022-10-28T10:47:32;15.40;;;4.55;;
56233;SDS011;42141;53.240;6.580;2022-10-28T10:50:12;10.65;;;4.57;;
56233;SDS011;42141;53.240;6.580;2022-10-28T10:52:54;14.13;;;4.93;;
56233;SDS011;42141;53.240;6.580;2022-10-28T10:55:26;10.27;;;4.22;;
56233;SDS011;42141;53.240;6.580;2022-10-28T10:57:57;16.23;;;4.55;;
56233;SDS011;42141;53.240;6.580;2022-10-28T11:00:24;12.00;;;4.97;;
56233;SDS011;42141;53.240;6.580;2022-10-28T11:02:55;12.60;;;4.40;;
56233;SDS011;42141;53.240;6.580;2022-10-28T11:05:23;14.77;;;5.18;;
56233;SDS011;42141;53.240;6.580;2022-10-28T11:07:49;13.63;;;5.07;;
56233;SDS011;42141;53.240;6.580;2022-10-28T11:10:23;23.30;;;5.32;;
56233;SDS011;42141;53.240;6.580;2022-10-28T11:12:55;20.13;;;5.90;;
56233;SDS011;42141;53.240;6.580;2022-10-28T11:15:24;11.18;;;5.10;;
56233;SDS011;42141;53.240;6.580;2022-10-28T11:20:55;12.48;;;5.10;;
56233;SDS011;42141;53.240;6.580;2022-10-28T11:26:04;23.20;;;5.22;;
56233;SDS011;42141;53.240;6.580;2022-10-28T11:45:30;18.92;;;4.68;;
56233;SDS011;42141;53.240;6.580;2022-10-28T11:50:58;14.57;;;4.63;;
56233;SDS011;42141;53.240;6.580;2022-10-28T11:56:46;19.77;;;5.47;;
56233;SDS011;42141;53.240;6.580;2022-10-28T12:07:53;10.73;;;4.47;;
56233;SDS011;42141;53.240;6.580;2022-10-28T12:10:20;10.90;;;4.05;;
56233;SDS011;42141;53.240;6.580;2022-10-28T12:18:50;16.00;;;5.22;;
56233;SDS011;42141;53.240;6.580;2022-10-28T12:21:33;16.83;;;4.72;;
56233;SDS011;42141;53.240;6.580;2022-10-28T12:24:16;23.50;;;5.35;;
56233;SDS011;42141;53.240;6.580;2022-10-28T12:26:46;15.63;;;4.30;;
56233;SDS011;42141;53.240;6.580;2022-10-28T12:29:25;15.23;;;4.28;;
56233;SDS011;42141;53.240;6.580;2022-10-28T12:32:06;12.77;;;4.60;;
56233;SDS011;42141;53.240;6.580;2022-10-28T12:34:45;21.35;;;5.28;;
56233;SDS011;42141;53.240;6.580;2022-10-28T12:41:41;13.60;;;4.60;;
56233;SDS011;42141;53.240;6.580;2022-10-28T12:43:38;17.23;;;4.50;;
56233;SDS011;42141;53.240;6.580;2022-10-28T12:46:06;18.67;;;5.20;;
56233;SDS011;42141;53.240;6.580;2022-10-28T12:48:54;16.38;;;4.28;;
56233;SDS011;42141;53.240;6.580;2022-10-28T12:51:32;19.88;;;5.15;;
56233;SDS011;42141;53.240;6.580;2022-10-28T12:56:49;16.02;;;4.82;;
56233;SDS011;42141;53.240;6.580;2022-10-28T12:59:34;11.50;;;4.60;;
56233;SDS011;42141;53.240;6.580;2022-10-28T13:02:03;9.88;;;4.57;;
56233;SDS011;42141;53.240;6.580;2022-10-28T13:04:56;19.27;;;5.25;;
56233;SDS011;42141;53.240;6.580;2022-10-28T13:07:30;14.15;;;4.90;;
56233;SDS011;42141;53.240;6.580;2022-10-28T13:10:01;15.48;;;5.18;;
56233;SDS011;42141;53.240;6.580;2022-10-28T13:18:45;11.55;;;4.75;;
56233;SDS011;42141;53.240;6.580;2022-10-28T13:21:50;13.65;;;5.60;;
56233;SDS011;42141;53.240;6.580;2022-10-28T13:24:37;19.23;;;4.85;;
56233;SDS011;42141;53.240;6.580;2022-10-28T13:27:25;21.05;;;5.88;;
56233;SDS011;42141;53.240;6.580;2022-10-28T13:29:52;16.70;;;4.80;;
56233;SDS011;42141;53.240;6.580;2022-10-28T13:32:31;18.83;;;4.53;;
56233;SDS011;42141;53.240;6.580;2022-10-28T13:35:00;18.73;;;5.35;;
56233;SDS011;42141;53.240;6.580;2022-10-28T13:37:40;23.67;;;6.15;;
56233;SDS011;42141;53.240;6.580;2022-10-28T13:40:20;19.10;;;4.97;;
56233;SDS011;42141;53.240;6.580;2022-10-28T13:42:55;16.40;;;4.65;;
56233;SDS011;42141;53.240;6.580;2022-10-28T13:45:55;19.83;;;5.70;;
56233;SDS011;42141;53.240;6.580;2022-10-28T13:56:59;13.40;;;4.78;;
56233;SDS011;42141;53.240;6.580;2022-10-28T14:01:37;17.92;;;4.97;;
56233;SDS011;42141;53.240;6.580;2022-10-28T14:04:24;17.50;;;5.13;;
56233;SDS011;42141;53.240;6.580;2022-10-28T14:07:04;20.08;;;5.38;;
56233;SDS011;42141;53.240;6.580;2022-10-28T14:09:46;21.52;;;5.20;;
56233;SDS011;42141;53.240;6.580;2022-10-28T14:12:22;25.38;;;4.95;;
56233;SDS011;42141;53.240;6.580;2022-10-28T14:15:00;18.50;;;5.75;;
56233;SDS011;42141;53.240;6.580;2022-10-28T14:17:44;20.70;;;5.18;;
56233;SDS011;42141;53.240;6.580;2022-10-28T14:33:37;14.73;;;4.93;;
56233;SDS011;42141;53.240;6.580;2022-10-28T14:36:28;23.13;;;5.30;;
56233;SDS011;42141;53.240;6.580;2022-10-28T14:49:54;19.35;;;6.80;;
56233;SDS011;42141;53.240;6.580;2022-10-28T14:52:25;14.60;;;5.70;;
56233;SDS011;42141;53.240;6.580;2022-10-28T14:54:59;23.20;;;6.72;;
56233;SDS011;42141;53.240;6.580;2022-10-28T14:57:31;18.33;;;5.72;;
56233;SDS011;42141;53.240;6.580;2022-10-28T15:00:00;17.73;;;4.68;;
56233;SDS011;42141;53.240;6.580;2022-10-28T15:02:32;18.67;;;5.00;;
56233;SDS011;42141;53.240;6.580;2022-10-28T15:07:38;16.58;;;6.05;;
56233;SDS011;42141;53.240;6.580;2022-10-28T15:10:14;15.50;;;6.07;;
56233;SDS011;42141;53.240;6.580;2022-10-28T15:12:44;19.25;;;5.93;;
56233;SDS011;42141;53.240;6.580;2022-10-28T15:17:43;18.80;;;5.70;;
56233;SDS011;42141;53.240;6.580;2022-10-28T15:20:22;24.75;;;5.38;;
56233;SDS011;42141;53.240;6.580;2022-10-28T15:23:08;20.35;;;4.82;;
56233;SDS011;42141;53.240;6.580;2022-10-28T15:25:40;14.57;;;5.97;;
56233;SDS011;42141;53.240;6.580;2022-10-28T15:28:11;16.30;;;4.73;;
56233;SDS011;42141;53.240;6.580;2022-10-28T15:30:42;20.80;;;5.70;;
56233;SDS011;42141;53.240;6.580;2022-10-28T15:33:27;15.65;;;5.13;;
56233;SDS011;42141;53.240;6.580;2022-10-28T15:36:15;14.50;;;4.93;;
56233;SDS011;42141;53.240;6.580;2022-10-28T15:41:39;16.25;;;5.45;;
56233;SDS011;42141;53.240;6.580;2022-10-28T15:46:56;16.70;;;5.28;;
56233;SDS011;42141;53.240;6.580;2022-10-28T15:49:29;16.48;;;5.60;;
56233;SDS011;42141;53.240;6.580;2022-10-28T15:55:40;16.67;;;5.43;;
56233;SDS011;42141;53.240;6.580;2022-10-28T15:57:54;22.88;;;5.43;;
56233;SDS011;42141;53.240;6.580;2022-10-28T16:00:23;14.38;;;5.88;;
56233;SDS011;42141;53.240;6.580;2022-10-28T16:02:56;15.10;;;5.53;;
56233;SDS011;42141;53.240;6.580;2022-10-28T16:08:06;18.27;;;5.55;;
56233;SDS011;42141;53.240;6.580;2022-10-28T16:13:30;28.25;;;7.03;;
56233;SDS011;42141;53.240;6.580;2022-10-28T16:16:06;21.95;;;5.90;;
56233;SDS011;42141;53.240;6.580;2022-10-28T16:18:38;18.08;;;5.85;;
56233;SDS011;42141;53.240;6.580;2022-10-28T16:21:05;18.42;;;5.55;;
56233;SDS011;42141;53.240;6.580;2022-10-28T16:23:33;18.42;;;5.10;;
56233;SDS011;42141;53.240;6.580;2022-10-28T16:26:02;19.88;;;4.70;;
56233;SDS011;42141;53.240;6.580;2022-10-28T16:28:29;22.23;;;6.55;;
56233;SDS011;42141;53.240;6.580;2022-10-28T16:30:56;16.38;;;5.07;;
56233;SDS011;42141;53.240;6.580;2022-10-28T16:33:42;23.00;;;5.82;;
56233;SDS011;42141;53.240;6.580;2022-10-28T16:36:08;15.20;;;5.70;;
56233;SDS011;42141;53.240;6.580;2022-10-28T16:38:37;14.70;;;6.13;;
56233;SDS011;42141;53.240;6.580;2022-10-28T16:41:04;14.73;;;5.85;;
56233;SDS011;42141;53.240;6.580;2022-10-28T16:43:31;22.30;;;5.22;;
56233;SDS011;42141;53.240;6.580;2022-10-28T16:45:58;17.90;;;5.25;;
56233;SDS011;42141;53.240;6.580;2022-10-28T16:48:26;13.68;;;5.00;;
56233;SDS011;42141;53.240;6.580;2022-10-28T16:50:54;19.48;;;6.20;;
56233;SDS011;42141;53.240;6.580;2022-10-28T16:53:24;18.95;;;5.00;;
56233;SDS011;42141;53.240;6.580;2022-10-28T16:55:50;17.35;;;4.85;;
56233;SDS011;42141;53.240;6.580;2022-10-28T16:58:16;16.77;;;5.22;;
56233;SDS011;42141;53.240;6.580;2022-10-28T17:00:42;25.58;;;5.70;;
56233;SDS011;42141;53.240;6.580;2022-10-28T17:03:09;11.88;;;5.43;;
56233;SDS011;42141;53.240;6.580;2022-10-28T17:05:38;15.75;;;5.40;;
56233;SDS011;42141;53.240;6.580;2022-10-28T17:08:04;18.10;;;5.63;;
56233;SDS011;42141;53.240;6.580;2022-10-28T17:10:30;21.92;;;5.55;;
56233;SDS011;42141;53.240;6.580;2022-10-28T17:12:56;18.55;;;5.80;;
56233;SDS011;42141;53.240;6.580;2022-10-28T17:15:21;19.13;;;5.93;;
56233;SDS011;42141;53.240;6.580;2022-10-28T17:17:48;16.33;;;5.60;;
56233;SDS011;42141;53.240;6.580;2022-10-28T17:20:15;21.25;;;5.75;;
56233;SDS011;42141;53.240;6.580;2022-10-28T17:22:40;22.23;;;5.68;;
56233;SDS011;42141;53.240;6.580;2022-10-28T17:25:06;25.65;;;7.32;;
56233;SDS011;42141;53.240;6.580;2022-10-28T17:27:35;16.60;;;5.70;;
56233;SDS011;42141;53.240;6.580;2022-10-28T17:30:01;23.00;;;5.55;;
56233;SDS011;42141;53.240;6.580;2022-10-28T17:32:27;24.73;;;6.10;;
56233;SDS011;42141;53.240;6.580;2022-10-28T17:34:53;21.67;;;5.60;;
56233;SDS011;42141;53.240;6.580;2022-10-28T17:37:19;23.33;;;6.82;;
56233;SDS011;42141;53.240;6.580;2022-10-28T17:39:44;23.02;;;6.47;;
56233;SDS011;42141;53.240;6.580;2022-10-28T17:42:10;20.10;;;5.97;;
56233;SDS011;42141;53.240;6.580;2022-10-28T17:44:36;24.40;;;6.57;;
56233;SDS011;42141;53.240;6.580;2022-10-28T17:47:01;22.55;;;6.47;;
56233;SDS011;42141;53.240;6.580;2022-10-28T17:49:27;23.45;;;6.35;;